Klamath Falls, Oregon
Current Conditions -  °F | °C
As of 7:53 AM on Thursday 30 Oct 2014 (Local Time) from KLMT Reporting Station
Moderate Fog Moderate Fog  
Wind Chill: 37°   Ceiling: 200
Heat Index: 37°   Visibility: 0.5mi
Dew Point: 36°   Wind: 3mph
Humidity: 96%   Direction: 320°NW
Pressure: 30.05"   Gusts: NA
Location:  42.22°N, 121.78°W
Report Text: KLMT 301453Z 32003KT 1/2SM R32/4000VP6000FT FG VV002 03/02 A3005 RMK AO2 SLP171 T00280022 58002
Loading
Personal Weather Stations






























Interactive Weather Map
Tropical Storm Tracking
New forecast layout! Learn more

10-Day Weather Forecast

Advertisements
Track Severe Weather on mobile